createdAt,value
2023-06-26T00:00:09.289Z,100.00
2023-06-26T00:02:37.197Z,100.00
2023-06-26T00:05:04.106Z,100.00
2023-06-26T00:07:31.618Z,100.00
2023-06-26T00:10:00.000Z,100.00
2023-06-26T00:12:26.970Z,100.00
2023-06-26T00:14:54.194Z,100.00
2023-06-26T00:17:21.073Z,100.00
2023-06-26T00:19:48.321Z,100.00
2023-06-26T00:22:15.300Z,100.00
2023-06-26T00:24:42.133Z,100.00
2023-06-26T00:27:09.127Z,100.00
2023-06-26T00:29:36.450Z,100.00
2023-06-26T00:32:03.244Z,100.00
2023-06-26T00:34:30.008Z,100.00
2023-06-26T00:36:56.988Z,100.00
2023-06-26T00:39:26.845Z,100.00
2023-06-26T00:41:56.928Z,100.00
2023-06-26T00:44:23.830Z,100.00
2023-06-26T00:46:51.058Z,100.00
2023-06-26T00:49:18.323Z,100.00
2023-06-26T00:51:45.131Z,100.00
2023-06-26T00:54:12.442Z,100.00
2023-06-26T00:56:40.973Z,100.00
2023-06-26T00:59:07.732Z,100.00
2023-06-26T01:01:34.430Z,100.00
2023-06-26T01:04:01.318Z,100.00
2023-06-26T01:06:30.779Z,100.00
2023-06-26T01:08:57.732Z,100.00
2023-06-26T01:11:24.835Z,100.00
2023-06-26T01:13:52.531Z,100.00
2023-06-26T01:16:20.728Z,100.00
2023-06-26T01:18:49.975Z,100.00
2023-06-26T01:21:17.144Z,100.00
2023-06-26T01:24:11.519Z,100.00
2023-06-26T01:26:41.327Z,100.00
2023-06-26T01:29:10.475Z,100.00
2023-06-26T01:31:39.337Z,100.00
2023-06-26T01:34:08.752Z,100.00
2023-06-26T01:36:35.645Z,100.00
2023-06-26T01:39:02.334Z,100.00
2023-06-26T01:41:29.932Z,100.00
2023-06-26T01:44:12.933Z,100.00
2023-06-26T01:47:15.342Z,100.00
2023-06-26T01:49:49.722Z,100.00
2023-06-26T01:52:24.277Z,100.00
2023-06-26T01:54:59.859Z,100.00
2023-06-26T01:57:28.132Z,100.00
2023-06-26T01:59:57.004Z,100.00
2023-06-26T02:02:26.037Z,100.00
2023-06-26T02:04:53.155Z,100.00
2023-06-26T02:07:20.056Z,100.00
2023-06-26T02:09:46.846Z,100.00
2023-06-26T02:12:13.709Z,100.00
2023-06-26T02:14:40.447Z,100.00
2023-06-26T02:17:09.627Z,100.00
2023-06-26T02:19:36.369Z,100.00
2023-06-26T02:22:03.175Z,100.00
2023-06-26T02:24:31.377Z,100.00
2023-06-26T02:26:58.827Z,100.00
2023-06-26T02:29:25.603Z,100.00
2023-06-26T02:31:52.505Z,100.00
2023-06-26T02:34:19.277Z,100.00
2023-06-26T02:36:46.217Z,100.00
2023-06-26T02:39:13.085Z,100.00
2023-06-26T02:41:39.868Z,100.00
2023-06-26T02:44:07.457Z,100.00
2023-06-26T02:46:34.763Z,100.00
2023-06-26T02:49:02.488Z,100.00
2023-06-26T02:51:29.196Z,100.00
2023-06-26T02:53:55.967Z,100.00
2023-06-26T02:56:22.632Z,100.00
2023-06-26T02:58:49.360Z,100.00
2023-06-26T03:01:18.034Z,100.00
2023-06-26T03:03:48.368Z,100.00
2023-06-26T03:06:15.787Z,100.00
2023-06-26T03:08:43.006Z,100.00
2023-06-26T03:11:10.343Z,100.00
2023-06-26T03:13:38.416Z,100.00
2023-06-26T03:16:05.952Z,100.00
2023-06-26T03:18:33.386Z,100.00
2023-06-26T03:21:00.996Z,100.00
2023-06-26T03:23:27.804Z,100.00
2023-06-26T03:25:54.734Z,100.00
2023-06-26T03:28:21.499Z,100.00
2023-06-26T03:30:48.287Z,100.00
2023-06-26T03:33:15.060Z,100.00
2023-06-26T03:35:41.827Z,100.00
2023-06-26T03:38:08.513Z,100.00
2023-06-26T03:40:35.624Z,100.00
2023-06-26T03:43:02.486Z,100.00
2023-06-26T03:45:29.242Z,100.00
2023-06-26T03:47:55.957Z,100.00
2023-06-26T03:50:22.746Z,100.00
2023-06-26T03:52:51.003Z,100.00
2023-06-26T03:55:19.980Z,100.00
2023-06-26T03:57:46.958Z,100.00
2023-06-26T04:00:14.439Z,100.00
2023-06-26T04:02:41.235Z,100.00
2023-06-26T04:05:08.161Z,100.00
2023-06-26T04:07:35.819Z,100.00
2023-06-26T04:10:02.984Z,100.00
2023-06-26T04:12:29.826Z,100.00
2023-06-26T04:14:56.489Z,100.00
2023-06-26T04:17:23.150Z,100.00
2023-06-26T04:19:49.941Z,100.00
2023-06-26T04:22:16.930Z,100.00
2023-06-26T04:24:44.728Z,100.00
2023-06-26T04:27:12.069Z,100.00
2023-06-26T04:29:38.884Z,100.00
2023-06-26T04:32:06.114Z,100.00
2023-06-26T04:34:34.999Z,100.00
2023-06-26T04:37:01.825Z,100.00
2023-06-26T04:39:28.518Z,100.00
2023-06-26T04:41:55.250Z,100.00
2023-06-26T04:44:22.407Z,100.00
2023-06-26T04:46:49.185Z,100.00
2023-06-26T04:49:18.913Z,100.00
2023-06-26T04:51:45.599Z,100.00
2023-06-26T04:54:12.367Z,100.00
2023-06-26T04:56:41.223Z,100.00
2023-06-26T04:59:08.059Z,100.00
2023-06-26T05:01:35.246Z,100.00
2023-06-26T05:04:02.027Z,100.00
2023-06-26T05:06:28.735Z,100.00
2023-06-26T05:08:55.485Z,100.00
2023-06-26T05:11:22.231Z,100.00
2023-06-26T05:13:48.945Z,100.00
2023-06-26T05:16:15.752Z,100.00
2023-06-26T05:18:42.485Z,100.00
2023-06-26T05:21:09.596Z,100.00
2023-06-26T05:23:36.450Z,100.00
2023-06-26T05:26:04.168Z,100.00
2023-06-26T05:28:37.060Z,100.00
2023-06-26T05:31:06.369Z,100.00
2023-06-26T05:33:36.934Z,100.00
2023-06-26T05:36:05.289Z,100.00
2023-06-26T05:38:32.376Z,100.00
2023-06-26T05:40:59.384Z,100.00
2023-06-26T05:43:29.020Z,100.00
2023-06-26T05:45:58.853Z,100.00
2023-06-26T05:48:25.701Z,90.24
2023-06-26T05:50:52.745Z,100.00
2023-06-26T05:53:19.763Z,100.00
2023-06-26T05:55:46.864Z,100.00
2023-06-26T05:58:13.971Z,100.00
2023-06-26T06:00:42.195Z,100.00
2023-06-26T06:03:11.764Z,100.00
2023-06-26T06:05:39.831Z,100.00
2023-06-26T06:08:06.605Z,99.16
2023-06-26T06:10:33.402Z,100.00
2023-06-26T06:13:00.105Z,100.00
2023-06-26T06:15:28.702Z,100.00
2023-06-26T06:17:56.880Z,100.00
2023-06-26T06:20:23.620Z,100.00
2023-06-26T06:22:50.398Z,100.00
2023-06-26T06:25:17.220Z,100.00
2023-06-26T06:27:44.574Z,100.00
2023-06-26T06:30:12.452Z,100.00
2023-06-26T06:32:39.280Z,100.00
2023-06-26T06:35:10.973Z,100.00
2023-06-26T06:37:41.161Z,100.00
2023-06-26T06:40:09.469Z,100.00
2023-06-26T06:42:36.918Z,100.00
2023-06-26T06:45:04.909Z,100.00
2023-06-26T06:47:32.989Z,100.00
2023-06-26T06:50:09.105Z,100.00
2023-06-26T06:52:38.373Z,100.00
2023-06-26T06:55:10.308Z,100.00
2023-06-26T06:58:02.600Z,100.00
2023-06-26T07:00:32.839Z,100.00
2023-06-26T07:03:02.986Z,100.00
2023-06-26T07:05:29.886Z,100.00
2023-06-26T07:07:56.722Z,83.54
2023-06-26T07:10:23.471Z,77.87
2023-06-26T07:12:50.284Z,82.62
2023-06-26T07:15:25.053Z,83.29
2023-06-26T07:17:55.112Z,88.91
2023-06-26T07:20:21.898Z,90.52
2023-06-26T07:22:49.897Z,84.71
2023-06-26T07:25:16.590Z,71.63
2023-06-26T07:27:44.248Z,65.20
2023-06-26T07:30:11.644Z,64.80
2023-06-26T07:32:39.238Z,75.01
2023-06-26T07:35:06.399Z,73.14
2023-06-26T07:37:33.213Z,70.74
2023-06-26T07:39:59.872Z,70.70
2023-06-26T07:42:26.723Z,71.12
2023-06-26T07:44:53.476Z,75.78
2023-06-26T07:47:20.158Z,75.83
2023-06-26T07:49:47.103Z,79.24
2023-06-26T07:52:16.109Z,88.09
2023-06-26T07:54:42.891Z,87.54
2023-06-26T07:57:13.132Z,95.57
2023-06-26T07:59:39.859Z,100.00
2023-06-26T08:02:09.696Z,84.66
2023-06-26T08:04:36.632Z,100.00
2023-06-26T08:07:05.035Z,100.00
2023-06-26T08:09:32.465Z,100.00
2023-06-26T08:11:59.855Z,100.00
2023-06-26T08:14:26.695Z,100.00
2023-06-26T08:16:53.841Z,100.00
2023-06-26T08:19:20.713Z,100.00
2023-06-26T08:21:48.151Z,100.00
2023-06-26T08:24:17.767Z,100.00
2023-06-26T08:26:49.208Z,100.00
2023-06-26T08:29:16.367Z,100.00
2023-06-26T08:31:44.337Z,100.00
2023-06-26T08:34:11.225Z,100.00
2023-06-26T08:36:38.830Z,100.00
2023-06-26T08:39:06.812Z,100.00
2023-06-26T08:41:33.819Z,100.00
2023-06-26T08:44:00.632Z,100.00
2023-06-26T08:46:27.401Z,97.94
2023-06-26T08:49:01.932Z,100.00
2023-06-26T08:51:31.558Z,100.00
2023-06-26T08:54:01.238Z,100.00
2023-06-26T08:56:43.013Z,81.16
2023-06-26T08:59:11.595Z,73.64
2023-06-26T09:01:39.737Z,76.48
2023-06-26T09:04:07.375Z,82.39
2023-06-26T09:06:34.826Z,80.56
2023-06-26T09:09:01.509Z,70.97
2023-06-26T09:11:28.354Z,74.80
2023-06-26T09:13:56.705Z,67.73
2023-06-26T09:16:30.439Z,74.83
2023-06-26T09:18:57.668Z,71.53
2023-06-26T09:21:25.639Z,68.71
2023-06-26T09:23:54.196Z,66.11
2023-06-26T09:26:22.582Z,71.66
2023-06-26T09:28:51.167Z,70.32
2023-06-26T09:31:31.655Z,68.03
2023-06-26T09:34:07.186Z,81.61
2023-06-26T09:36:37.998Z,87.10
2023-06-26T09:39:11.901Z,70.22
2023-06-26T09:41:39.530Z,67.61
2023-06-26T09:44:09.319Z,79.10
2023-06-26T09:46:36.169Z,69.69
2023-06-26T09:49:05.418Z,79.63
2023-06-26T09:51:33.839Z,82.30
2023-06-26T09:54:01.650Z,60.59
2023-06-26T09:56:32.535Z,71.69
2023-06-26T09:59:02.449Z,79.77
2023-06-26T10:01:29.744Z,83.08
2023-06-26T10:04:00.472Z,74.11
2023-06-26T10:06:32.914Z,88.09
2023-06-26T10:09:01.634Z,66.38
2023-06-26T10:11:37.948Z,71.60
2023-06-26T10:14:16.909Z,69.62
2023-06-26T10:16:47.534Z,76.95
2023-06-26T10:19:15.719Z,82.44
2023-06-26T10:21:43.034Z,72.88
2023-06-26T10:24:13.715Z,76.65
2023-06-26T10:26:45.319Z,88.59
2023-06-26T10:29:14.174Z,88.75
2023-06-26T10:31:44.090Z,91.65
2023-06-26T10:34:10.942Z,86.36
2023-06-26T10:36:37.726Z,89.17
2023-06-26T10:39:06.471Z,83.67
2023-06-26T10:42:00.620Z,84.96
2023-06-26T10:44:42.668Z,85.13
2023-06-26T10:47:09.472Z,83.09
2023-06-26T10:49:38.234Z,80.60
2023-06-26T10:52:05.177Z,90.04
2023-06-26T10:54:33.918Z,84.89
2023-06-26T10:57:02.765Z,100.00
2023-06-26T10:59:31.141Z,100.00
2023-06-26T11:02:09.192Z,100.00
2023-06-26T11:04:48.108Z,100.00
2023-06-26T11:07:25.594Z,100.00
2023-06-26T11:10:02.618Z,100.00
2023-06-26T11:12:39.755Z,100.00
2023-06-26T11:15:10.682Z,100.00
2023-06-26T11:17:38.965Z,79.22
2023-06-26T11:20:10.823Z,70.48
2023-06-26T11:22:40.045Z,78.08
2023-06-26T11:25:08.287Z,69.01
2023-06-26T11:27:45.083Z,60.86
2023-06-26T11:30:23.801Z,65.14
2023-06-26T11:32:50.761Z,74.74
2023-06-26T11:35:33.077Z,71.63
2023-06-26T11:38:05.581Z,69.50
2023-06-26T11:40:34.917Z,82.19
2023-06-26T11:43:04.338Z,89.73
2023-06-26T11:45:33.034Z,84.10
2023-06-26T11:48:00.827Z,76.31
2023-06-26T11:50:28.259Z,100.00
2023-06-26T11:52:57.052Z,100.00
2023-06-26T11:55:27.640Z,100.00
2023-06-26T11:57:55.990Z,100.00
2023-06-26T12:00:23.253Z,100.00
2023-06-26T12:02:54.262Z,100.00
2023-06-26T12:05:21.791Z,100.00
2023-06-26T12:07:50.806Z,100.00
2023-06-26T12:10:19.166Z,100.00
2023-06-26T12:12:47.145Z,100.00
2023-06-26T12:15:16.840Z,100.00
2023-06-26T12:17:46.652Z,100.00
2023-06-26T12:20:24.116Z,100.00
2023-06-26T12:22:51.125Z,100.00
2023-06-26T12:25:23.854Z,100.00
2023-06-26T12:27:51.218Z,100.00
2023-06-26T12:30:17.924Z,100.00
2023-06-26T12:32:48.251Z,100.00
2023-06-26T12:35:17.185Z,100.00
2023-06-26T12:37:47.308Z,100.00
2023-06-26T12:40:19.064Z,100.00
2023-06-26T12:42:46.681Z,100.00
2023-06-26T12:45:31.254Z,100.00
2023-06-26T12:48:09.315Z,100.00
2023-06-26T12:50:54.578Z,100.00
2023-06-26T12:53:23.930Z,100.00
2023-06-26T12:55:50.641Z,100.00
2023-06-26T12:58:18.656Z,100.00
2023-06-26T13:00:45.410Z,100.00
2023-06-26T13:03:12.292Z,100.00
2023-06-26T13:05:39.028Z,100.00
2023-06-26T13:08:05.968Z,100.00
2023-06-26T13:10:33.068Z,100.00
2023-06-26T13:12:59.781Z,100.00
2023-06-26T13:15:26.799Z,100.00
2023-06-26T13:17:53.586Z,100.00
2023-06-26T13:20:20.294Z,100.00
2023-06-26T13:22:47.585Z,100.00
2023-06-26T13:25:14.405Z,100.00
2023-06-26T13:27:41.270Z,100.00
2023-06-26T13:30:09.028Z,100.00
2023-06-26T13:32:35.819Z,100.00
2023-06-26T13:35:02.575Z,100.00
2023-06-26T13:37:29.450Z,100.00
2023-06-26T13:39:56.138Z,100.00
2023-06-26T13:42:22.878Z,100.00
2023-06-26T13:45:00.419Z,100.00
2023-06-26T13:47:30.231Z,100.00
2023-06-26T13:49:57.013Z,100.00
2023-06-26T13:52:23.743Z,100.00
2023-06-26T13:54:50.428Z,100.00
2023-06-26T13:57:17.166Z,100.00
2023-06-26T13:59:45.507Z,100.00
2023-06-26T14:02:13.621Z,100.00
2023-06-26T14:04:40.971Z,100.00
2023-06-26T14:07:08.520Z,100.00
2023-06-26T14:09:35.538Z,100.00
2023-06-26T14:12:02.423Z,100.00
2023-06-26T14:14:29.232Z,100.00
2023-06-26T14:16:56.024Z,100.00
2023-06-26T14:19:22.794Z,100.00
2023-06-26T14:21:49.485Z,100.00
2023-06-26T14:24:21.134Z,100.00
2023-06-26T14:26:48.014Z,100.00
2023-06-26T14:29:18.348Z,100.00
2023-06-26T14:31:45.367Z,100.00
2023-06-26T14:34:12.117Z,100.00
2023-06-26T14:36:39.439Z,100.00
2023-06-26T14:39:06.200Z,100.00
2023-06-26T14:41:33.553Z,100.00
2023-06-26T14:44:03.354Z,100.00
2023-06-26T14:46:35.067Z,100.00
2023-06-26T14:49:02.502Z,100.00
2023-06-26T14:51:29.228Z,100.00
2023-06-26T14:53:56.194Z,100.00
2023-06-26T14:56:23.116Z,100.00
2023-06-26T14:58:52.571Z,100.00
2023-06-26T15:01:20.969Z,100.00
2023-06-26T15:03:48.365Z,100.00
2023-06-26T15:06:15.810Z,100.00
2023-06-26T15:08:42.600Z,100.00
2023-06-26T15:11:09.423Z,100.00
2023-06-26T15:13:36.142Z,100.00
2023-06-26T15:16:02.820Z,100.00
2023-06-26T15:18:29.631Z,100.00
2023-06-26T15:20:56.345Z,100.00
2023-06-26T15:23:23.009Z,100.00
2023-06-26T15:25:49.752Z,100.00
2023-06-26T15:28:16.522Z,100.00
2023-06-26T15:30:43.204Z,100.00
2023-06-26T15:33:10.773Z,100.00
2023-06-26T15:35:38.979Z,100.00
2023-06-26T15:38:06.077Z,100.00
2023-06-26T15:40:32.833Z,100.00
2023-06-26T15:42:59.567Z,100.00
2023-06-26T15:45:26.845Z,100.00
2023-06-26T15:47:54.486Z,100.00
2023-06-26T15:50:21.684Z,100.00
2023-06-26T15:52:49.180Z,100.00
2023-06-26T15:55:16.627Z,100.00
2023-06-26T15:57:43.831Z,100.00
2023-06-26T16:00:11.289Z,100.00
2023-06-26T16:02:38.370Z,100.00
2023-06-26T16:05:06.107Z,100.00
2023-06-26T16:07:46.963Z,100.00
2023-06-26T16:10:18.213Z,100.00
2023-06-26T16:12:44.934Z,100.00
2023-06-26T16:15:11.721Z,100.00
2023-06-26T16:17:38.609Z,100.00
2023-06-26T16:20:06.267Z,100.00
2023-06-26T16:22:32.992Z,100.00
2023-06-26T16:24:59.730Z,100.00
2023-06-26T16:27:26.479Z,100.00
2023-06-26T16:29:53.773Z,100.00
2023-06-26T16:32:20.689Z,100.00
2023-06-26T16:34:47.486Z,100.00
2023-06-26T16:37:14.342Z,100.00
2023-06-26T16:39:43.350Z,100.00
2023-06-26T16:42:10.015Z,100.00
2023-06-26T16:44:36.761Z,100.00
2023-06-26T16:47:03.636Z,100.00
2023-06-26T16:49:30.564Z,100.00
2023-06-26T16:51:57.669Z,100.00
2023-06-26T16:54:25.985Z,100.00
2023-06-26T16:56:58.367Z,100.00
2023-06-26T16:59:25.611Z,100.00
2023-06-26T17:01:52.310Z,100.00
2023-06-26T17:04:19.358Z,100.00
2023-06-26T17:06:46.236Z,100.00
2023-06-26T17:09:13.260Z,100.00
2023-06-26T17:11:42.430Z,100.00
2023-06-26T17:14:19.584Z,100.00
2023-06-26T17:16:46.605Z,100.00
2023-06-26T17:19:13.744Z,100.00
2023-06-26T17:21:40.596Z,100.00
2023-06-26T17:24:07.493Z,100.00
2023-06-26T17:26:35.430Z,100.00
2023-06-26T17:29:04.046Z,100.00
2023-06-26T17:31:32.827Z,100.00
2023-06-26T17:33:59.869Z,100.00
2023-06-26T17:36:26.660Z,100.00
2023-06-26T17:38:54.650Z,100.00
2023-06-26T17:41:21.640Z,100.00
2023-06-26T17:43:48.333Z,100.00
2023-06-26T17:46:15.571Z,100.00
2023-06-26T17:48:42.338Z,100.00
2023-06-26T17:51:09.123Z,100.00
2023-06-26T17:53:36.145Z,100.00
2023-06-26T17:56:02.854Z,100.00
2023-06-26T17:58:30.069Z,100.00
2023-06-26T18:00:56.814Z,100.00
2023-06-26T18:03:23.585Z,100.00
2023-06-26T18:05:50.378Z,100.00
2023-06-26T18:08:17.126Z,100.00
2023-06-26T18:10:43.870Z,100.00
2023-06-26T18:13:10.610Z,100.00
2023-06-26T18:15:37.468Z,100.00
2023-06-26T18:18:04.222Z,100.00
2023-06-26T18:20:30.905Z,100.00
2023-06-26T18:22:58.778Z,100.00
2023-06-26T18:25:25.661Z,100.00
2023-06-26T18:27:52.462Z,100.00
2023-06-26T18:30:19.255Z,100.00
2023-06-26T18:32:47.281Z,100.00
2023-06-26T18:35:14.177Z,100.00
2023-06-26T18:37:40.918Z,100.00
2023-06-26T18:40:14.704Z,100.00
2023-06-26T18:42:45.054Z,100.00
2023-06-26T18:45:13.860Z,100.00
2023-06-26T18:47:42.069Z,100.00
2023-06-26T18:50:09.166Z,100.00
2023-06-26T18:52:36.504Z,100.00
2023-06-26T18:55:03.774Z,100.00
2023-06-26T18:57:30.549Z,100.00
2023-06-26T18:59:57.245Z,100.00
2023-06-26T19:02:24.578Z,100.00
2023-06-26T19:04:51.523Z,100.00
2023-06-26T19:07:18.330Z,100.00
2023-06-26T19:09:45.033Z,100.00
2023-06-26T19:12:12.019Z,100.00
2023-06-26T19:14:38.824Z,100.00
2023-06-26T19:17:05.790Z,100.00
2023-06-26T19:19:32.696Z,100.00
2023-06-26T19:21:59.439Z,100.00
2023-06-26T19:24:26.131Z,100.00
2023-06-26T19:26:55.130Z,100.00
2023-06-26T19:29:22.550Z,100.00
2023-06-26T19:31:50.575Z,100.00
2023-06-26T19:34:18.912Z,100.00
2023-06-26T19:36:49.273Z,100.00
2023-06-26T19:39:16.044Z,100.00
2023-06-26T19:41:42.830Z,100.00
2023-06-26T19:44:09.500Z,100.00
2023-06-26T19:46:36.240Z,100.00
2023-06-26T19:49:03.018Z,100.00
2023-06-26T19:51:29.761Z,100.00
2023-06-26T19:53:56.448Z,100.00
2023-06-26T19:56:23.214Z,100.00
2023-06-26T19:58:51.469Z,100.00
2023-06-26T20:01:18.165Z,100.00
2023-06-26T20:03:45.034Z,100.00
2023-06-26T20:06:11.824Z,100.00
2023-06-26T20:08:38.501Z,100.00
2023-06-26T20:11:05.994Z,100.00
2023-06-26T20:13:32.656Z,100.00
2023-06-26T20:16:00.098Z,100.00
2023-06-26T20:18:26.879Z,100.00
2023-06-26T20:20:53.664Z,100.00
2023-06-26T20:23:20.468Z,100.00
2023-06-26T20:25:47.917Z,100.00
2023-06-26T20:28:14.613Z,100.00
2023-06-26T20:30:42.355Z,100.00
2023-06-26T20:33:09.308Z,100.00
2023-06-26T20:35:36.317Z,100.00
2023-06-26T20:38:03.032Z,100.00
2023-06-26T20:40:30.087Z,100.00
2023-06-26T20:42:57.160Z,100.00
2023-06-26T20:45:24.966Z,100.00
2023-06-26T20:47:58.114Z,100.00
2023-06-26T20:50:25.368Z,100.00
2023-06-26T20:52:52.485Z,100.00
2023-06-26T20:55:19.588Z,100.00
2023-06-26T20:57:46.371Z,100.00
2023-06-26T21:00:13.639Z,100.00
2023-06-26T21:02:40.518Z,100.00
2023-06-26T21:05:07.942Z,100.00
2023-06-26T21:07:34.806Z,100.00
2023-06-26T21:10:07.878Z,100.00
2023-06-26T21:12:36.042Z,100.00
2023-06-26T21:15:02.784Z,100.00
2023-06-26T21:17:29.567Z,100.00
2023-06-26T21:19:58.512Z,100.00
2023-06-26T21:22:25.403Z,100.00
2023-06-26T21:24:52.164Z,100.00
2023-06-26T21:27:18.918Z,100.00
2023-06-26T21:29:45.722Z,100.00
2023-06-26T21:32:12.801Z,100.00
2023-06-26T21:34:40.167Z,100.00
2023-06-26T21:37:07.498Z,100.00
2023-06-26T21:39:34.283Z,100.00
2023-06-26T21:42:00.958Z,100.00
2023-06-26T21:44:27.602Z,100.00
2023-06-26T21:46:54.407Z,100.00
2023-06-26T21:49:21.214Z,100.00
2023-06-26T21:51:47.986Z,100.00
2023-06-26T21:54:14.702Z,100.00
2023-06-26T21:56:41.397Z,100.00
2023-06-26T21:59:10.345Z,100.00
2023-06-26T22:01:37.079Z,100.00
2023-06-26T22:04:03.833Z,100.00
2023-06-26T22:06:30.585Z,100.00
2023-06-26T22:08:57.314Z,100.00
2023-06-26T22:11:24.005Z,100.00
2023-06-26T22:13:50.756Z,100.00
2023-06-26T22:16:17.503Z,100.00
2023-06-26T22:18:44.298Z,100.00
2023-06-26T22:21:11.106Z,100.00
2023-06-26T22:23:37.886Z,100.00
2023-06-26T22:26:04.623Z,100.00
2023-06-26T22:28:31.418Z,100.00
2023-06-26T22:30:58.098Z,100.00
2023-06-26T22:33:24.873Z,100.00
2023-06-26T22:35:53.053Z,100.00
2023-06-26T22:38:19.936Z,100.00
2023-06-26T22:40:47.150Z,100.00
2023-06-26T22:43:13.853Z,100.00
2023-06-26T22:45:41.234Z,100.00
2023-06-26T22:48:10.474Z,100.00
2023-06-26T22:50:38.652Z,100.00
2023-06-26T22:53:05.461Z,100.00
2023-06-26T22:55:34.330Z,100.00
2023-06-26T22:58:01.023Z,100.00
2023-06-26T23:00:27.765Z,100.00
2023-06-26T23:02:54.498Z,100.00
2023-06-26T23:05:21.623Z,100.00
2023-06-26T23:07:48.337Z,100.00
2023-06-26T23:10:15.027Z,100.00
2023-06-26T23:12:41.744Z,100.00
2023-06-26T23:15:08.874Z,100.00
2023-06-26T23:17:36.521Z,100.00
2023-06-26T23:20:05.050Z,100.00
2023-06-26T23:22:31.748Z,100.00
2023-06-26T23:24:59.104Z,100.00
2023-06-26T23:27:26.158Z,100.00
2023-06-26T23:29:54.804Z,100.00
2023-06-26T23:32:23.038Z,100.00
2023-06-26T23:34:50.755Z,100.00
2023-06-26T23:37:26.371Z,100.00
2023-06-26T23:39:53.966Z,100.00
2023-06-26T23:42:21.034Z,100.00
2023-06-26T23:44:50.819Z,100.00
2023-06-26T23:47:22.289Z,100.00
2023-06-26T23:49:49.137Z,100.00
2023-06-26T23:52:15.917Z,100.00
2023-06-26T23:54:42.660Z,100.00
2023-06-26T23:57:09.416Z,100.00
2023-06-26T23:59:36.323Z,100.00
